Marganell (Bages)





Hora UTC 16:55
Temperatura 20.1 ºC
Humitat 50.0 %
Pressió 1010.9 hPa
Pluja 0.0 mm
Velocitat vent 0.0 km/h
Direcció vent

Dades diàries 2024-04-16



Hora UTC (hivern +1h; estiu +2h)
Temperatura (ºC) Humitat (%) Pressió (hPa) Velocitat vent (km/h) Precipitació (mm)
Hora UTC Aire Humitat Pressió Vel. Dir. Vel. Max Dir. Intent. màx 5 min.
00:05 9.9 86.0 1017.5 0.0 0.0 0.0
00:15 9.9 86.0 1017.4 0.0 19.3 0.0
00:25 10.1 86.0 1017.5 0.0 19.3 0.0
00:35 10.3 85.0 1017.3 0.0 19.3 0.0
00:45 10.4 83.0 1017.0 0.0 19.3 0.0
00:55 10.6 81.0 1016.9 0.0 19.3 0.0
01:05 10.8 78.0 1016.8 0.0 19.3 0.0
01:15 11.1 75.0 1016.6 0.0 19.3 0.0
01:25 11.1 74.0 1016.5 0.0 19.3 0.0
01:35 11.1 72.0 1016.4 0.0 19.3 0.0
01:45 11.4 69.0 1016.5 0.0 19.3 0.0
01:55 11.3 70.0 1016.5 0.0 19.3 0.0
02:05 10.7 71.0 1016.4 0.0 19.3 0.0
02:15 10.2 72.0 1016.4 0.0 19.3 0.0
02:25 9.3 74.0 1016.4 0.0 19.3 0.0
02:35 8.9 75.0 1016.4 0.0 19.3 0.0
02:45 8.6 76.0 1016.5 0.0 19.3 0.0
02:55 8.1 77.0 1016.3 0.0 19.3 0.0
03:05 7.8 78.0 1016.3 0.0 19.3 0.0
03:15 7.6 78.0 1016.3 0.0 19.3 0.0
03:25 7.2 79.0 1016.4 0.0 19.3 0.0
03:35 6.9 80.0 1016.3 0.0 19.3 0.0
03:45 6.8 81.0 1016.4 0.0 19.3 0.0
03:55 6.6 81.0 1016.3 0.0 19.3 0.0
04:05 6.6 82.0 1016.2 0.0 19.3 0.0
04:15 6.7 82.0 1015.9 0.0 19.3 0.0
04:25 6.8 82.0 1016.0 0.0 19.3 0.0
04:35 6.8 81.0 1016.0 0.0 19.3 0.0
04:45 6.8 82.0 1015.9 0.0 19.3 0.0
04:55 6.5 82.0 1015.8 0.0 19.3 0.0
05:05 6.4 83.0 1016.3 0.0 19.3 0.0
05:15 6.4 83.0 1016.3 0.0 19.3 0.0
05:25 6.4 83.0 1016.4 0.0 19.3 0.0
05:35 6.4 83.0 1016.3 0.0 19.3 0.0
05:45 6.4 84.0 1016.2 0.0 19.3 0.0
05:55 6.9 84.0 1016.1 0.0 19.3 0.0
06:05 7.1 83.0 1016.2 0.0 19.3 0.0
06:15 7.7 84.0 1016.0 0.0 19.3 0.0
06:25 8.7 81.0 1016.2 0.0 19.3 0.0
06:35 9.6 78.0 1016.3 0.0 19.3 0.0
06:45 10.2 76.0 1016.1 0.0 19.3 0.0
06:55 10.8 74.0 1016.1 0.0 19.3 0.0
07:05 11.3 72.0 1015.7 0.0 19.3 0.0
07:15 11.8 70.0 1015.7 0.0 19.3 0.0
07:25 12.2 69.0 1015.5 0.0 19.3 0.0
07:35 12.6 68.0 1015.6 0.0 19.3 0.0
07:45 12.9 66.0 1015.4 0.0 19.3 0.0
07:55 13.4 65.0 1015.5 0.0 19.3 0.0
08:05 13.8 65.0 1015.5 0.0 19.3 0.0
08:15 13.8 66.0 1015.4 0.0 19.3 0.0
08:25 14.1 64.0 1015.5 0.0 19.3 0.0
08:35 14.3 63.0 1015.5 0.0 19.3 0.0
08:45 14.3 62.0 1015.4 0.0 19.3 0.0
08:55 14.5 61.0 1015.2 0.0 19.3 0.0
09:05 15.1 61.0 1015.2 0.0 19.3 0.0
09:15 15.3 60.0 1015.1 6.5 19.3 0.0
09:25 15.7 60.0 1015.1 0.0 19.3 0.0
09:35 15.8 58.0 1014.9 0.0 0.0 0.0
09:45 16.1 58.0 1014.9 0.0 0.0 0.0
09:55 16.1 58.0 1014.8 0.0 0.0 0.0
10:05 16.7 57.0 1014.6 0.0 0.0 0.0
10:15 17.0 55.0 1014.5 0.0 1.6 0.0
10:25 17.5 55.0 1014.5 0.0 1.6 0.0
10:35 17.6 54.0 1014.4 0.0 1.6 0.0
10:45 17.9 53.0 1014.2 0.0 3.2 0.0
10:55 18.2 53.0 1014.1 0.0 16.1 0.0
11:05 18.4 52.0 1014.0 0.0 16.1 0.0
11:15 18.8 50.0 1013.8 0.0 19.3 0.0
11:25 19.1 50.0 1013.7 0.0 19.3 0.0
11:35 19.3 51.0 1013.5 0.0 24.1 0.0
11:45 19.6 50.0 1013.3 0.0 24.1 0.0
11:55 19.6 50.0 1013.1 0.0 24.1 0.0
12:05 20.1 50.0 1012.8 0.0 24.1 0.0
12:15 20.7 48.0 1012.8 0.0 24.1 0.0
12:25 20.6 47.0 1012.7 6.5 24.1 0.0
12:35 20.4 48.0 1012.8 0.0 24.1 0.0
12:45 20.5 48.0 1012.7 0.0 24.1 0.0
12:55 20.9 46.0 1012.6 3.1 24.1 0.0
13:05 21.0 46.0 1012.4 0.0 24.1 0.0
13:15 21.3 45.0 1012.4 9.6 24.1 0.0
13:25 21.4 45.0 1012.0 0.0 25.7 0.0
13:35 21.8 45.0 1012.1 16.1 25.7 0.0
13:45 22.1 44.0 1011.9 0.0 25.7 0.0
13:55 22.1 45.0 1011.8 0.0 25.7 0.0
14:05 22.1 44.0 1011.7 0.0 25.7 0.0
14:15 22.5 46.0 1011.5 0.0 25.7 0.0
14:25 22.5 44.0 1011.1 8.0 25.7 0.0
14:35 22.8 44.0 1011.0 3.1 25.7 0.0
14:45 22.9 43.0 1010.8 0.0 25.7 0.0
14:55 22.8 43.0 1010.7 1.7 25.7 0.0
15:05 22.7 43.0 1010.7 0.0 25.7 0.0
15:15 22.8 42.0 1010.6 9.6 25.7 0.0
15:25 22.7 43.0 1010.3 0.0 25.7 0.0
15:35 23.1 42.0 1010.2 1.7 27.4 0.0
15:45 21.7 46.0 1010.5 0.0 27.4 0.0
15:55 21.4 47.0 1010.4 1.7 27.4 0.0
16:05 21.4 47.0 1010.6 0.0 27.4 0.0
16:15 21.0 47.0 1010.5 0.0 27.4 0.0
16:25 20.8 48.0 1010.6 0.0 27.4 0.0
16:35 20.6 49.0 1010.6 0.0 27.4 0.0
16:45 20.4 49.0 1010.9 0.0 27.4 0.0
16:55 20.1 50.0 1010.9 0.0 27.4 0.0
Màxima 27.7 86.0 1017.5 16.1 27.4 0.0
Mínima 6.3 42.0 1010.2
Total 0.0